Bay Village, Ohio
Current Conditions -  °F | °C
As of 11:00 AM on Monday 26 Jan 2015 (Local Time) from KCLE Reporting Station
Overcast Overcast  
Wind Chill:   Ceiling: 1000
Heat Index: 21°   Visibility: 10mi
Dew Point: 16°   Wind: 20mph
Humidity: 81%   Direction: 10°N
Pressure: 29.88"   Gusts: NA
Location:  41.48°N, 81.92°W
Report Text: KCLE 261600Z 01017KT 10SM OVC010 M06/M09 A2988 RMK AO2 CIG 008V011 T10611089 $
Loading
Personal Weather Stations






























Interactive Weather Map New forecast layout! Learn more

10-Day Weather Forecast

Advertisements
Track Severe Weather on mobile